sensor_id;sensor_type;location;lat;lon;timestamp;temperature;humidity
17341;DHT22;8788;49.930;8.660;2023-02-15T00:01:09;4.50;99.90
17341;DHT22;8788;49.930;8.660;2023-02-15T00:03:36;4.50;99.90
17341;DHT22;8788;49.930;8.660;2023-02-15T00:06:04;4.50;99.90
17341;DHT22;8788;49.930;8.660;2023-02-15T00:08:32;4.60;99.90
17341;DHT22;8788;49.930;8.660;2023-02-15T00:11:06;4.60;99.90
17341;DHT22;8788;49.930;8.660;2023-02-15T00:13:33;4.60;99.90
17341;DHT22;8788;49.930;8.660;2023-02-15T00:16:02;4.60;99.90
17341;DHT22;8788;49.930;8.660;2023-02-15T00:18:31;4.60;99.90
17341;DHT22;8788;49.930;8.660;2023-02-15T00:21:02;4.60;99.90
17341;DHT22;8788;49.930;8.660;2023-02-15T00:23:29;4.60;99.90
17341;DHT22;8788;49.930;8.660;2023-02-15T00:26:04;4.50;99.90
17341;DHT22;8788;49.930;8.660;2023-02-15T00:28:31;4.50;99.90
17341;DHT22;8788;49.930;8.660;2023-02-15T00:31:03;4.50;99.90
17341;DHT22;8788;49.930;8.660;2023-02-15T00:33:32;4.50;99.90
17341;DHT22;8788;49.930;8.660;2023-02-15T00:36:00;4.50;99.90
17341;DHT22;8788;49.930;8.660;2023-02-15T00:38:28;4.60;99.90
17341;DHT22;8788;49.930;8.660;2023-02-15T00:40:57;4.60;99.90
17341;DHT22;8788;49.930;8.660;2023-02-15T00:43:24;4.60;99.90
17341;DHT22;8788;49.930;8.660;2023-02-15T00:45:52;4.60;99.90
17341;DHT22;8788;49.930;8.660;2023-02-15T00:48:19;4.60;99.90
17341;DHT22;8788;49.930;8.660;2023-02-15T00:50:49;4.60;99.90
17341;DHT22;8788;49.930;8.660;2023-02-15T00:53:18;4.60;99.90
17341;DHT22;8788;49.930;8.660;2023-02-15T00:55:45;4.60;99.90
17341;DHT22;8788;49.930;8.660;2023-02-15T00:58:14;4.50;99.90
17341;DHT22;8788;49.930;8.660;2023-02-15T01:00:43;4.50;99.90
17341;DHT22;8788;49.930;8.660;2023-02-15T01:03:11;4.50;99.90
17341;DHT22;8788;49.930;8.660;2023-02-15T01:05:38;4.50;99.90
17341;DHT22;8788;49.930;8.660;2023-02-15T01:08:07;4.50;99.90
17341;DHT22;8788;49.930;8.660;2023-02-15T01:10:35;4.50;99.90
17341;DHT22;8788;49.930;8.660;2023-02-15T01:13:02;4.50;99.90
17341;DHT22;8788;49.930;8.660;2023-02-15T01:15:30;4.40;99.90
17341;DHT22;8788;49.930;8.660;2023-02-15T01:17:58;4.50;99.90
17341;DHT22;8788;49.930;8.660;2023-02-15T01:20:27;4.50;99.90
17341;DHT22;8788;49.930;8.660;2023-02-15T01:22:55;4.50;99.90
17341;DHT22;8788;49.930;8.660;2023-02-15T01:25:24;4.50;99.90
17341;DHT22;8788;49.930;8.660;2023-02-15T01:27:51;4.60;99.90
17341;DHT22;8788;49.930;8.660;2023-02-15T01:30:19;4.60;99.90
17341;DHT22;8788;49.930;8.660;2023-02-15T01:32:47;4.60;99.90
17341;DHT22;8788;49.930;8.660;2023-02-15T01:35:14;4.60;99.90
17341;DHT22;8788;49.930;8.660;2023-02-15T01:37:41;4.70;99.90
17341;DHT22;8788;49.930;8.660;2023-02-15T01:40:12;4.60;99.90
17341;DHT22;8788;49.930;8.660;2023-02-15T01:42:41;4.60;99.90
17341;DHT22;8788;49.930;8.660;2023-02-15T01:45:19;4.60;99.90
17341;DHT22;8788;49.930;8.660;2023-02-15T01:47:51;4.60;99.90
17341;DHT22;8788;49.930;8.660;2023-02-15T01:50:25;4.70;99.90
17341;DHT22;8788;49.930;8.660;2023-02-15T01:52:58;4.70;99.90
17341;DHT22;8788;49.930;8.660;2023-02-15T01:55:29;4.70;99.90
17341;DHT22;8788;49.930;8.660;2023-02-15T01:57:58;4.70;99.90
17341;DHT22;8788;49.930;8.660;2023-02-15T02:00:26;4.70;99.90
17341;DHT22;8788;49.930;8.660;2023-02-15T02:02:55;4.70;99.90
17341;DHT22;8788;49.930;8.660;2023-02-15T02:05:24;4.70;99.90
17341;DHT22;8788;49.930;8.660;2023-02-15T02:07:53;4.70;99.90
17341;DHT22;8788;49.930;8.660;2023-02-15T02:10:23;4.70;99.90
17341;DHT22;8788;49.930;8.660;2023-02-15T02:12:52;4.70;99.90
17341;DHT22;8788;49.930;8.660;2023-02-15T02:15:27;4.70;99.90
17341;DHT22;8788;49.930;8.660;2023-02-15T02:18:06;4.70;99.90
17341;DHT22;8788;49.930;8.660;2023-02-15T02:21:06;4.70;99.90
17341;DHT22;8788;49.930;8.660;2023-02-15T02:23:47;4.80;99.90
17341;DHT22;8788;49.930;8.660;2023-02-15T02:26:41;4.80;99.90
17341;DHT22;8788;49.930;8.660;2023-02-15T02:29:45;4.80;99.90
17341;DHT22;8788;49.930;8.660;2023-02-15T02:35:27;4.80;99.90
17341;DHT22;8788;49.930;8.660;2023-02-15T02:38:04;4.80;99.90
17341;DHT22;8788;49.930;8.660;2023-02-15T02:40:42;4.80;99.90
17341;DHT22;8788;49.930;8.660;2023-02-15T02:43:15;4.80;99.90
17341;DHT22;8788;49.930;8.660;2023-02-15T02:45:51;4.80;99.90
17341;DHT22;8788;49.930;8.660;2023-02-15T02:48:21;4.80;99.90
17341;DHT22;8788;49.930;8.660;2023-02-15T02:50:50;4.80;99.90
17341;DHT22;8788;49.930;8.660;2023-02-15T02:53:17;4.80;99.90
17341;DHT22;8788;49.930;8.660;2023-02-15T02:55:46;4.90;99.90
17341;DHT22;8788;49.930;8.660;2023-02-15T02:58:18;4.90;99.90
17341;DHT22;8788;49.930;8.660;2023-02-15T03:00:51;4.90;99.90
17341;DHT22;8788;49.930;8.660;2023-02-15T03:03:23;4.90;99.90
17341;DHT22;8788;49.930;8.660;2023-02-15T03:05:54;4.90;99.90
17341;DHT22;8788;49.930;8.660;2023-02-15T03:08:24;4.90;99.90
17341;DHT22;8788;49.930;8.660;2023-02-15T03:10:56;4.90;99.90
17341;DHT22;8788;49.930;8.660;2023-02-15T03:13:24;4.80;99.90
17341;DHT22;8788;49.930;8.660;2023-02-15T03:15:52;4.80;99.90
17341;DHT22;8788;49.930;8.660;2023-02-15T03:18:44;4.80;99.90
17341;DHT22;8788;49.930;8.660;2023-02-15T03:21:34;4.90;99.90
17341;DHT22;8788;49.930;8.660;2023-02-15T03:24:09;4.80;99.90
17341;DHT22;8788;49.930;8.660;2023-02-15T03:26:38;4.80;99.90
17341;DHT22;8788;49.930;8.660;2023-02-15T03:29:07;4.80;99.90
17341;DHT22;8788;49.930;8.660;2023-02-15T03:31:38;4.80;99.90
17341;DHT22;8788;49.930;8.660;2023-02-15T03:34:09;4.80;99.90
17341;DHT22;8788;49.930;8.660;2023-02-15T03:36:43;4.80;99.90
17341;DHT22;8788;49.930;8.660;2023-02-15T03:39:17;4.80;99.90
17341;DHT22;8788;49.930;8.660;2023-02-15T03:41:49;4.80;99.90
17341;DHT22;8788;49.930;8.660;2023-02-15T03:44:25;4.80;99.90
17341;DHT22;8788;49.930;8.660;2023-02-15T03:46:58;4.80;99.90
17341;DHT22;8788;49.930;8.660;2023-02-15T03:49:32;4.80;99.90
17341;DHT22;8788;49.930;8.660;2023-02-15T03:52:04;4.80;99.90
17341;DHT22;8788;49.930;8.660;2023-02-15T03:54:33;4.80;99.90
17341;DHT22;8788;49.930;8.660;2023-02-15T03:57:15;4.80;99.90
17341;DHT22;8788;49.930;8.660;2023-02-15T04:00:03;4.80;99.90
17341;DHT22;8788;49.930;8.660;2023-02-15T04:03:07;4.80;99.90
17341;DHT22;8788;49.930;8.660;2023-02-15T04:05:36;4.70;99.90
17341;DHT22;8788;49.930;8.660;2023-02-15T04:08:05;4.60;99.90
17341;DHT22;8788;49.930;8.660;2023-02-15T04:10:32;4.50;99.90
17341;DHT22;8788;49.930;8.660;2023-02-15T04:13:16;4.50;99.90
17341;DHT22;8788;49.930;8.660;2023-02-15T04:15:43;4.60;99.90
17341;DHT22;8788;49.930;8.660;2023-02-15T04:18:29;4.60;99.90
17341;DHT22;8788;49.930;8.660;2023-02-15T04:21:13;4.60;99.90
17341;DHT22;8788;49.930;8.660;2023-02-15T04:23:59;4.60;99.90
17341;DHT22;8788;49.930;8.660;2023-02-15T04:26:45;4.60;99.90
17341;DHT22;8788;49.930;8.660;2023-02-15T04:29:13;4.60;99.90
17341;DHT22;8788;49.930;8.660;2023-02-15T04:31:41;4.50;99.90
17341;DHT22;8788;49.930;8.660;2023-02-15T04:34:08;4.50;99.90
17341;DHT22;8788;49.930;8.660;2023-02-15T04:36:36;4.50;99.90
17341;DHT22;8788;49.930;8.660;2023-02-15T04:39:05;4.50;99.90
17341;DHT22;8788;49.930;8.660;2023-02-15T04:41:33;4.50;99.90
17341;DHT22;8788;49.930;8.660;2023-02-15T04:44:00;4.40;99.90
17341;DHT22;8788;49.930;8.660;2023-02-15T04:46:28;4.40;99.90
17341;DHT22;8788;49.930;8.660;2023-02-15T04:48:55;4.40;99.90
17341;DHT22;8788;49.930;8.660;2023-02-15T04:51:23;4.40;99.90
17341;DHT22;8788;49.930;8.660;2023-02-15T04:53:50;4.30;99.90
17341;DHT22;8788;49.930;8.660;2023-02-15T04:56:19;4.30;99.90
17341;DHT22;8788;49.930;8.660;2023-02-15T04:58:47;4.30;99.90
17341;DHT22;8788;49.930;8.660;2023-02-15T05:01:14;4.30;99.90
17341;DHT22;8788;49.930;8.660;2023-02-15T05:03:41;4.30;99.90
17341;DHT22;8788;49.930;8.660;2023-02-15T05:06:08;4.30;99.90
17341;DHT22;8788;49.930;8.660;2023-02-15T05:08:35;4.30;99.90
17341;DHT22;8788;49.930;8.660;2023-02-15T05:11:02;4.30;99.90
17341;DHT22;8788;49.930;8.660;2023-02-15T05:13:31;4.30;99.90
17341;DHT22;8788;49.930;8.660;2023-02-15T05:15:58;4.30;99.90
17341;DHT22;8788;49.930;8.660;2023-02-15T05:18:25;4.30;99.90
17341;DHT22;8788;49.930;8.660;2023-02-15T05:20:52;4.30;99.90
17341;DHT22;8788;49.930;8.660;2023-02-15T05:23:19;4.30;99.90
17341;DHT22;8788;49.930;8.660;2023-02-15T05:25:47;4.30;99.90
17341;DHT22;8788;49.930;8.660;2023-02-15T05:28:34;4.20;99.90
17341;DHT22;8788;49.930;8.660;2023-02-15T05:31:04;4.20;99.90
17341;DHT22;8788;49.930;8.660;2023-02-15T05:33:32;4.20;99.90
17341;DHT22;8788;49.930;8.660;2023-02-15T05:36:00;4.20;99.90
17341;DHT22;8788;49.930;8.660;2023-02-15T05:38:27;4.10;99.90
17341;DHT22;8788;49.930;8.660;2023-02-15T05:40:54;4.00;99.90
17341;DHT22;8788;49.930;8.660;2023-02-15T05:43:22;4.00;99.90
17341;DHT22;8788;49.930;8.660;2023-02-15T05:45:53;4.00;99.90
17341;DHT22;8788;49.930;8.660;2023-02-15T05:48:22;4.00;99.90
17341;DHT22;8788;49.930;8.660;2023-02-15T05:50:57;4.00;99.90
17341;DHT22;8788;49.930;8.660;2023-02-15T05:53:25;4.10;99.90
17341;DHT22;8788;49.930;8.660;2023-02-15T05:55:52;4.00;99.90
17341;DHT22;8788;49.930;8.660;2023-02-15T05:58:25;4.00;99.90
17341;DHT22;8788;49.930;8.660;2023-02-15T06:00:53;3.90;99.90
17341;DHT22;8788;49.930;8.660;2023-02-15T06:03:21;3.90;99.90
17341;DHT22;8788;49.930;8.660;2023-02-15T06:05:49;3.90;99.90
17341;DHT22;8788;49.930;8.660;2023-02-15T06:08:16;4.00;99.90
17341;DHT22;8788;49.930;8.660;2023-02-15T06:10:45;4.00;99.90
17341;DHT22;8788;49.930;8.660;2023-02-15T06:13:12;4.00;99.90
17341;DHT22;8788;49.930;8.660;2023-02-15T06:15:39;4.00;99.90
17341;DHT22;8788;49.930;8.660;2023-02-15T06:18:07;4.00;99.90
17341;DHT22;8788;49.930;8.660;2023-02-15T06:20:34;4.00;99.90
17341;DHT22;8788;49.930;8.660;2023-02-15T06:23:01;4.00;99.90
17341;DHT22;8788;49.930;8.660;2023-02-15T06:25:28;4.00;99.90
17341;DHT22;8788;49.930;8.660;2023-02-15T06:27:56;4.00;99.90
17341;DHT22;8788;49.930;8.660;2023-02-15T06:30:23;4.00;99.90
17341;DHT22;8788;49.930;8.660;2023-02-15T06:32:50;4.00;99.90
17341;DHT22;8788;49.930;8.660;2023-02-15T06:35:18;3.90;99.90
17341;DHT22;8788;49.930;8.660;2023-02-15T06:37:46;3.90;99.90
17341;DHT22;8788;49.930;8.660;2023-02-15T06:40:13;3.80;99.90
17341;DHT22;8788;49.930;8.660;2023-02-15T06:42:41;3.80;99.90
17341;DHT22;8788;49.930;8.660;2023-02-15T06:45:09;3.70;99.90
17341;DHT22;8788;49.930;8.660;2023-02-15T06:47:37;3.70;99.90
17341;DHT22;8788;49.930;8.660;2023-02-15T06:50:05;3.70;99.90
17341;DHT22;8788;49.930;8.660;2023-02-15T06:52:34;3.70;99.90
17341;DHT22;8788;49.930;8.660;2023-02-15T06:55:01;3.70;99.90
17341;DHT22;8788;49.930;8.660;2023-02-15T06:57:28;3.60;99.90
17341;DHT22;8788;49.930;8.660;2023-02-15T06:59:55;3.60;99.90
17341;DHT22;8788;49.930;8.660;2023-02-15T07:02:24;3.50;99.90
17341;DHT22;8788;49.930;8.660;2023-02-15T07:04:51;3.30;99.90
17341;DHT22;8788;49.930;8.660;2023-02-15T07:07:18;3.30;99.90
17341;DHT22;8788;49.930;8.660;2023-02-15T07:09:47;3.30;99.90
17341;DHT22;8788;49.930;8.660;2023-02-15T07:12:14;3.30;99.90
17341;DHT22;8788;49.930;8.660;2023-02-15T07:14:58;3.40;99.90
17341;DHT22;8788;49.930;8.660;2023-02-15T07:17:26;3.40;99.90
17341;DHT22;8788;49.930;8.660;2023-02-15T07:19:54;3.50;99.90
17341;DHT22;8788;49.930;8.660;2023-02-15T07:22:21;3.50;99.90
17341;DHT22;8788;49.930;8.660;2023-02-15T07:24:50;3.50;99.90
17341;DHT22;8788;49.930;8.660;2023-02-15T07:27:20;3.60;99.90
17341;DHT22;8788;49.930;8.660;2023-02-15T07:29:47;3.60;99.90
17341;DHT22;8788;49.930;8.660;2023-02-15T07:32:14;3.60;99.90
17341;DHT22;8788;49.930;8.660;2023-02-15T07:34:41;3.60;99.90
17341;DHT22;8788;49.930;8.660;2023-02-15T07:37:08;3.60;99.90
17341;DHT22;8788;49.930;8.660;2023-02-15T07:39:35;3.60;99.90
17341;DHT22;8788;49.930;8.660;2023-02-15T07:42:04;3.60;99.90
17341;DHT22;8788;49.930;8.660;2023-02-15T07:44:31;3.60;99.90
17341;DHT22;8788;49.930;8.660;2023-02-15T07:46:58;3.70;99.90
17341;DHT22;8788;49.930;8.660;2023-02-15T07:49:25;3.70;99.90
17341;DHT22;8788;49.930;8.660;2023-02-15T07:51:52;3.70;99.90
17341;DHT22;8788;49.930;8.660;2023-02-15T07:54:19;3.70;99.90
17341;DHT22;8788;49.930;8.660;2023-02-15T07:56:46;3.80;99.90
17341;DHT22;8788;49.930;8.660;2023-02-15T07:59:15;3.80;99.90
17341;DHT22;8788;49.930;8.660;2023-02-15T08:01:42;3.80;99.90
17341;DHT22;8788;49.930;8.660;2023-02-15T08:04:09;3.80;99.90
17341;DHT22;8788;49.930;8.660;2023-02-15T08:06:37;3.80;99.90
17341;DHT22;8788;49.930;8.660;2023-02-15T08:09:05;3.80;99.90
17341;DHT22;8788;49.930;8.660;2023-02-15T08:11:34;3.80;99.90
17341;DHT22;8788;49.930;8.660;2023-02-15T08:14:06;3.90;99.90
17341;DHT22;8788;49.930;8.660;2023-02-15T08:16:37;3.90;99.90
17341;DHT22;8788;49.930;8.660;2023-02-15T08:19:06;3.90;99.90
17341;DHT22;8788;49.930;8.660;2023-02-15T08:21:35;3.90;99.90
17341;DHT22;8788;49.930;8.660;2023-02-15T08:24:03;4.00;99.90
17341;DHT22;8788;49.930;8.660;2023-02-15T08:26:31;4.00;99.90
17341;DHT22;8788;49.930;8.660;2023-02-15T08:28:59;4.00;99.90
17341;DHT22;8788;49.930;8.660;2023-02-15T08:31:27;4.00;99.90
17341;DHT22;8788;49.930;8.660;2023-02-15T08:33:56;4.00;99.90
17341;DHT22;8788;49.930;8.660;2023-02-15T08:36:25;3.90;99.90
17341;DHT22;8788;49.930;8.660;2023-02-15T08:38:53;3.90;99.90
17341;DHT22;8788;49.930;8.660;2023-02-15T08:41:21;3.90;99.90
17341;DHT22;8788;49.930;8.660;2023-02-15T08:43:51;3.90;99.90
17341;DHT22;8788;49.930;8.660;2023-02-15T08:46:19;3.80;99.90
17341;DHT22;8788;49.930;8.660;2023-02-15T08:48:47;3.80;99.90
17341;DHT22;8788;49.930;8.660;2023-02-15T08:51:17;3.70;99.90
17341;DHT22;8788;49.930;8.660;2023-02-15T08:53:46;3.70;99.90
17341;DHT22;8788;49.930;8.660;2023-02-15T08:56:15;3.70;99.90
17341;DHT22;8788;49.930;8.660;2023-02-15T08:58:43;3.90;99.90
17341;DHT22;8788;49.930;8.660;2023-02-15T09:01:11;4.00;99.90
17341;DHT22;8788;49.930;8.660;2023-02-15T09:03:39;4.10;99.90
17341;DHT22;8788;49.930;8.660;2023-02-15T09:06:06;4.10;99.90
17341;DHT22;8788;49.930;8.660;2023-02-15T09:08:35;4.10;99.90
17341;DHT22;8788;49.930;8.660;2023-02-15T09:11:07;4.20;99.90
17341;DHT22;8788;49.930;8.660;2023-02-15T09:13:35;4.20;99.90
17341;DHT22;8788;49.930;8.660;2023-02-15T09:16:03;4.30;99.90
17341;DHT22;8788;49.930;8.660;2023-02-15T09:18:33;4.30;99.90
17341;DHT22;8788;49.930;8.660;2023-02-15T09:21:05;4.20;99.90
17341;DHT22;8788;49.930;8.660;2023-02-15T09:23:35;4.10;99.90
17341;DHT22;8788;49.930;8.660;2023-02-15T09:26:06;4.20;99.90
17341;DHT22;8788;49.930;8.660;2023-02-15T09:28:34;4.20;99.90
17341;DHT22;8788;49.930;8.660;2023-02-15T09:31:10;4.30;99.90
17341;DHT22;8788;49.930;8.660;2023-02-15T09:33:38;4.30;99.90
17341;DHT22;8788;49.930;8.660;2023-02-15T09:36:13;4.30;99.90
17341;DHT22;8788;49.930;8.660;2023-02-15T09:38:42;4.30;99.90
17341;DHT22;8788;49.930;8.660;2023-02-15T09:41:20;4.40;99.90
17341;DHT22;8788;49.930;8.660;2023-02-15T09:43:58;4.40;99.90
17341;DHT22;8788;49.930;8.660;2023-02-15T09:46:45;4.40;99.90
17341;DHT22;8788;49.930;8.660;2023-02-15T09:49:22;4.40;99.90
17341;DHT22;8788;49.930;8.660;2023-02-15T09:52:10;4.40;99.90
17341;DHT22;8788;49.930;8.660;2023-02-15T09:54:56;4.40;99.90
17341;DHT22;8788;49.930;8.660;2023-02-15T09:57:32;4.50;99.90
17341;DHT22;8788;49.930;8.660;2023-02-15T10:00:09;4.50;99.90
17341;DHT22;8788;49.930;8.660;2023-02-15T10:02:55;4.60;99.90
17341;DHT22;8788;49.930;8.660;2023-02-15T10:05:33;4.60;99.90
17341;DHT22;8788;49.930;8.660;2023-02-15T10:08:27;4.70;99.90
17341;DHT22;8788;49.930;8.660;2023-02-15T10:11:04;4.70;99.90
17341;DHT22;8788;49.930;8.660;2023-02-15T10:14:03;4.50;99.90
17341;DHT22;8788;49.930;8.660;2023-02-15T10:16:39;4.60;99.90
17341;DHT22;8788;49.930;8.660;2023-02-15T10:19:12;4.60;99.90
17341;DHT22;8788;49.930;8.660;2023-02-15T10:21:54;4.60;99.90
17341;DHT22;8788;49.930;8.660;2023-02-15T10:24:38;4.50;99.90
17341;DHT22;8788;49.930;8.660;2023-02-15T10:27:12;4.50;99.90
17341;DHT22;8788;49.930;8.660;2023-02-15T10:29:45;4.60;99.90
17341;DHT22;8788;49.930;8.660;2023-02-15T10:32:22;4.60;99.90
17341;DHT22;8788;49.930;8.660;2023-02-15T10:34:51;4.60;99.90
17341;DHT22;8788;49.930;8.660;2023-02-15T10:37:39;4.70;99.90
17341;DHT22;8788;49.930;8.660;2023-02-15T10:40:15;4.60;99.90
17341;DHT22;8788;49.930;8.660;2023-02-15T10:42:59;4.50;99.90
17341;DHT22;8788;49.930;8.660;2023-02-15T10:45:40;4.50;99.90
17341;DHT22;8788;49.930;8.660;2023-02-15T10:48:21;4.60;99.90
17341;DHT22;8788;49.930;8.660;2023-02-15T10:50:50;4.70;99.90
17341;DHT22;8788;49.930;8.660;2023-02-15T10:53:35;4.60;99.90
17341;DHT22;8788;49.930;8.660;2023-02-15T10:56:12;4.50;99.90
17341;DHT22;8788;49.930;8.660;2023-02-15T10:58:58;4.50;99.90
17341;DHT22;8788;49.930;8.660;2023-02-15T11:01:31;4.30;99.90
17341;DHT22;8788;49.930;8.660;2023-02-15T11:04:34;4.40;99.90
17341;DHT22;8788;49.930;8.660;2023-02-15T11:07:07;4.40;99.90
17341;DHT22;8788;49.930;8.660;2023-02-15T11:09:38;4.50;99.90
17341;DHT22;8788;49.930;8.660;2023-02-15T11:12:11;4.50;99.90
17341;DHT22;8788;49.930;8.660;2023-02-15T11:14:43;4.40;99.90
17341;DHT22;8788;49.930;8.660;2023-02-15T11:17:16;4.60;99.90
17341;DHT22;8788;49.930;8.660;2023-02-15T11:19:51;4.60;99.90
17341;DHT22;8788;49.930;8.660;2023-02-15T11:22:19;4.70;99.90
17341;DHT22;8788;49.930;8.660;2023-02-15T11:24:47;4.90;99.90
17341;DHT22;8788;49.930;8.660;2023-02-15T11:27:19;4.90;99.90
17341;DHT22;8788;49.930;8.660;2023-02-15T11:29:53;4.90;99.90
17341;DHT22;8788;49.930;8.660;2023-02-15T11:32:24;4.90;99.90
17341;DHT22;8788;49.930;8.660;2023-02-15T11:34:55;4.90;99.90
17341;DHT22;8788;49.930;8.660;2023-02-15T11:37:29;4.80;99.90
17341;DHT22;8788;49.930;8.660;2023-02-15T11:40:01;4.70;99.90
17341;DHT22;8788;49.930;8.660;2023-02-15T11:42:30;4.70;99.90
17341;DHT22;8788;49.930;8.660;2023-02-15T11:45:04;4.80;99.90
17341;DHT22;8788;49.930;8.660;2023-02-15T11:47:31;4.90;99.90
17341;DHT22;8788;49.930;8.660;2023-02-15T11:49:59;4.90;99.90
17341;DHT22;8788;49.930;8.660;2023-02-15T11:52:27;4.90;99.90
17341;DHT22;8788;49.930;8.660;2023-02-15T11:54:54;4.90;99.90
17341;DHT22;8788;49.930;8.660;2023-02-15T11:57:26;4.90;99.90
17341;DHT22;8788;49.930;8.660;2023-02-15T12:00:00;4.90;99.90
17341;DHT22;8788;49.930;8.660;2023-02-15T12:02:35;4.90;99.90
17341;DHT22;8788;49.930;8.660;2023-02-15T12:05:09;4.90;99.90
17341;DHT22;8788;49.930;8.660;2023-02-15T12:07:43;5.00;99.90
17341;DHT22;8788;49.930;8.660;2023-02-15T12:10:17;5.00;99.90
17341;DHT22;8788;49.930;8.660;2023-02-15T12:12:46;5.00;99.90
17341;DHT22;8788;49.930;8.660;2023-02-15T12:15:14;5.10;99.90
17341;DHT22;8788;49.930;8.660;2023-02-15T12:17:56;5.10;99.90
17341;DHT22;8788;49.930;8.660;2023-02-15T12:20:28;5.20;99.90
17341;DHT22;8788;49.930;8.660;2023-02-15T12:23:00;5.20;99.90
17341;DHT22;8788;49.930;8.660;2023-02-15T12:25:35;5.30;99.90
17341;DHT22;8788;49.930;8.660;2023-02-15T12:28:03;5.30;99.90
17341;DHT22;8788;49.930;8.660;2023-02-15T12:30:35;5.30;99.90
17341;DHT22;8788;49.930;8.660;2023-02-15T12:33:21;5.30;99.90
17341;DHT22;8788;49.930;8.660;2023-02-15T12:35:57;5.30;99.90
17341;DHT22;8788;49.930;8.660;2023-02-15T12:38:26;5.20;99.90
17341;DHT22;8788;49.930;8.660;2023-02-15T12:40:58;5.20;99.90
17341;DHT22;8788;49.930;8.660;2023-02-15T12:43:27;5.30;99.90
17341;DHT22;8788;49.930;8.660;2023-02-15T12:46:13;5.40;99.90
17341;DHT22;8788;49.930;8.660;2023-02-15T12:48:41;5.40;99.90
17341;DHT22;8788;49.930;8.660;2023-02-15T12:51:11;5.40;99.90
17341;DHT22;8788;49.930;8.660;2023-02-15T12:53:40;5.50;99.90
17341;DHT22;8788;49.930;8.660;2023-02-15T12:56:09;5.60;99.90
17341;DHT22;8788;49.930;8.660;2023-02-15T12:58:37;5.50;99.90
17341;DHT22;8788;49.930;8.660;2023-02-15T13:01:12;5.60;99.90
17341;DHT22;8788;49.930;8.660;2023-02-15T13:03:56;5.70;99.90
17341;DHT22;8788;49.930;8.660;2023-02-15T13:06:23;5.70;99.90
17341;DHT22;8788;49.930;8.660;2023-02-15T13:08:52;5.70;99.90
17341;DHT22;8788;49.930;8.660;2023-02-15T13:11:22;5.70;99.90
17341;DHT22;8788;49.930;8.660;2023-02-15T13:13:54;5.70;99.90
17341;DHT22;8788;49.930;8.660;2023-02-15T13:16:28;5.80;99.90
17341;DHT22;8788;49.930;8.660;2023-02-15T13:18:57;5.90;99.90
17341;DHT22;8788;49.930;8.660;2023-02-15T13:21:30;5.90;99.90
17341;DHT22;8788;49.930;8.660;2023-02-15T13:24:01;6.00;99.90
17341;DHT22;8788;49.930;8.660;2023-02-15T13:26:31;6.00;99.90
17341;DHT22;8788;49.930;8.660;2023-02-15T13:29:04;6.10;99.90
17341;DHT22;8788;49.930;8.660;2023-02-15T13:31:35;6.10;99.90
17341;DHT22;8788;49.930;8.660;2023-02-15T13:34:09;6.10;99.90
17341;DHT22;8788;49.930;8.660;2023-02-15T13:36:42;6.10;99.90
17341;DHT22;8788;49.930;8.660;2023-02-15T13:39:20;6.10;99.90
17341;DHT22;8788;49.930;8.660;2023-02-15T13:41:58;6.10;99.90
17341;DHT22;8788;49.930;8.660;2023-02-15T13:44:58;6.10;99.90
17341;DHT22;8788;49.930;8.660;2023-02-15T13:47:43;6.10;99.90
17341;DHT22;8788;49.930;8.660;2023-02-15T13:50:29;6.10;99.90
17341;DHT22;8788;49.930;8.660;2023-02-15T13:53:19;6.10;99.90
17341;DHT22;8788;49.930;8.660;2023-02-15T13:55:55;6.10;99.90
17341;DHT22;8788;49.930;8.660;2023-02-15T14:01:36;6.10;99.90
17341;DHT22;8788;49.930;8.660;2023-02-15T14:04:20;6.10;99.90
17341;DHT22;8788;49.930;8.660;2023-02-15T14:07:24;6.10;99.90
17341;DHT22;8788;49.930;8.660;2023-02-15T14:10:02;6.10;99.90
17341;DHT22;8788;49.930;8.660;2023-02-15T14:12:50;6.10;99.90
17341;DHT22;8788;49.930;8.660;2023-02-15T14:15:32;6.10;99.90
17341;DHT22;8788;49.930;8.660;2023-02-15T14:18:12;6.10;99.90
17341;DHT22;8788;49.930;8.660;2023-02-15T14:20:51;6.10;99.90
17341;DHT22;8788;49.930;8.660;2023-02-15T14:23:37;6.10;99.90
17341;DHT22;8788;49.930;8.660;2023-02-15T14:26:14;6.20;99.90
17341;DHT22;8788;49.930;8.660;2023-02-15T14:28:46;6.20;99.90
17341;DHT22;8788;49.930;8.660;2023-02-15T14:31:15;6.20;99.90
17341;DHT22;8788;49.930;8.660;2023-02-15T14:33:52;6.20;99.90
17341;DHT22;8788;49.930;8.660;2023-02-15T14:36:23;6.20;99.90
17341;DHT22;8788;49.930;8.660;2023-02-15T14:38:57;6.20;99.90
17341;DHT22;8788;49.930;8.660;2023-02-15T14:41:31;6.20;99.90
17341;DHT22;8788;49.930;8.660;2023-02-15T14:44:07;6.20;99.90
17341;DHT22;8788;49.930;8.660;2023-02-15T14:46:41;6.20;99.90
17341;DHT22;8788;49.930;8.660;2023-02-15T14:49:12;6.30;99.90
17341;DHT22;8788;49.930;8.660;2023-02-15T14:52:03;6.20;99.90
17341;DHT22;8788;49.930;8.660;2023-02-15T14:54:58;6.20;99.90
17341;DHT22;8788;49.930;8.660;2023-02-15T14:57:27;6.10;99.90
17341;DHT22;8788;49.930;8.660;2023-02-15T14:59:58;6.00;99.90
17341;DHT22;8788;49.930;8.660;2023-02-15T15:02:40;6.00;99.90
17341;DHT22;8788;49.930;8.660;2023-02-15T15:05:15;6.00;99.90
17341;DHT22;8788;49.930;8.660;2023-02-15T15:07:47;5.90;99.90
17341;DHT22;8788;49.930;8.660;2023-02-15T15:10:39;5.90;99.90
17341;DHT22;8788;49.930;8.660;2023-02-15T15:16:31;5.60;99.90
17341;DHT22;8788;49.930;8.660;2023-02-15T15:19:12;5.50;99.90
17341;DHT22;8788;49.930;8.660;2023-02-15T15:22:03;5.40;99.90
17341;DHT22;8788;49.930;8.660;2023-02-15T15:24:50;5.50;99.90
17341;DHT22;8788;49.930;8.660;2023-02-15T15:27:52;5.50;99.90
17341;DHT22;8788;49.930;8.660;2023-02-15T15:30:47;5.50;99.90
17341;DHT22;8788;49.930;8.660;2023-02-15T15:33:41;5.50;99.90
17341;DHT22;8788;49.930;8.660;2023-02-15T15:39:21;5.40;99.90
17341;DHT22;8788;49.930;8.660;2023-02-15T15:41:58;5.30;99.90
17341;DHT22;8788;49.930;8.660;2023-02-15T15:47:48;5.40;99.90
17341;DHT22;8788;49.930;8.660;2023-02-15T15:50:19;5.40;99.90
17341;DHT22;8788;49.930;8.660;2023-02-15T15:52:48;5.30;99.90
17341;DHT22;8788;49.930;8.660;2023-02-15T15:55:18;5.40;99.90
17341;DHT22;8788;49.930;8.660;2023-02-15T15:57:49;5.40;99.90
17341;DHT22;8788;49.930;8.660;2023-02-15T16:00:34;5.30;99.90
17341;DHT22;8788;49.930;8.660;2023-02-15T16:03:02;5.30;99.90
17341;DHT22;8788;49.930;8.660;2023-02-15T16:05:36;5.30;99.90
17341;DHT22;8788;49.930;8.660;2023-02-15T16:08:03;5.20;99.90
17341;DHT22;8788;49.930;8.660;2023-02-15T16:10:31;5.10;99.90
17341;DHT22;8788;49.930;8.660;2023-02-15T16:13:01;5.10;99.90
17341;DHT22;8788;49.930;8.660;2023-02-15T16:15:34;5.20;99.90
17341;DHT22;8788;49.930;8.660;2023-02-15T16:18:02;5.20;99.90
17341;DHT22;8788;49.930;8.660;2023-02-15T16:20:31;5.20;99.90
17341;DHT22;8788;49.930;8.660;2023-02-15T16:23:21;5.10;99.90
17341;DHT22;8788;49.930;8.660;2023-02-15T16:25:58;5.10;99.90
17341;DHT22;8788;49.930;8.660;2023-02-15T16:28:30;5.00;99.90
17341;DHT22;8788;49.930;8.660;2023-02-15T16:31:05;4.90;99.90
17341;DHT22;8788;49.930;8.660;2023-02-15T16:33:37;4.90;99.90
17341;DHT22;8788;49.930;8.660;2023-02-15T16:36:09;5.00;99.90
17341;DHT22;8788;49.930;8.660;2023-02-15T16:39:08;5.10;99.90
17341;DHT22;8788;49.930;8.660;2023-02-15T16:41:36;5.10;99.90
17341;DHT22;8788;49.930;8.660;2023-02-15T16:44:10;5.00;99.90
17341;DHT22;8788;49.930;8.660;2023-02-15T16:46:41;5.00;99.90
17341;DHT22;8788;49.930;8.660;2023-02-15T16:49:16;5.10;99.90
17341;DHT22;8788;49.930;8.660;2023-02-15T16:51:45;5.10;99.90
17341;DHT22;8788;49.930;8.660;2023-02-15T16:54:21;5.10;99.90